METAR Data

Data at: 0931 UTC 17 Nov 2018

METAR for:KATL (Atlanta/Hartsfield-J, GA, US)
Text:KATL 170852Z 31008KT 10SM SCT250 04/02 A3018 RMK AO2 SLP223 T00390017 53002
Temperature: 3.9°C ( 39°F)
Dewpoint: 1.7°C ( 35°F) [RH = 86%]
Pressure (altimeter):30.18 inches Hg (1022.1 mb) [Sea level pressure: 1022.3 mb]
Winds:from the NW (310 degrees) at 9 MPH (8 knots; 4.1 m/s)
Visibility:10 or more sm (16+ km)
Ceiling:at least 12,000 feet AGL
Clouds: scattered clouds at 25000 feet AGL